Nearby METAR Reports

 

KMTN - Baltimore/Martin, Maryland, USA
Distance from station: SSE 8mi, 13km
Updated: Fri, 27-Mar-2015 3:45pm EDT
Mostly cloudy
Mostly cloudy
 Wind from N
Wind: N 6 mph , 9 km/h
Temperature: 46°F , 8°C
Wind Chill: 43°F , 6°C
Dew Point: 32°F , 0°C
Humidity: 57%
Barometer: 29.78 inHg , 1008.5 hPa
Clouds: Mostly cloudy
Visibility: 10 miles , 16 km
Cloud details: Mostly cloudy 4400 ft
Mostly cloudy 5000 ft
2015/03/27 19:45 KMTN 271945Z 35005KT 10SM BKN044 BKN050 08/00 A2978
KDMH - Baltimore/Dwntwn, Maryland, USA
Distance from station: SW 12mi, 19km
Updated: Fri, 27-Mar-2015 3:54pm EDT

 
Temperature: 48°F , 9°C
Dew Point: 27°F , -3°C
Humidity: 43%
Barometer: 29.76 inHg , 1007.8 hPa
2015/03/27 19:54 KDMH 271954Z AUTO 09/M03 A2976 RMK AO1 SLP079 T00891033
 
KBWI - Balto/Wash Intl, Maryland, USA
Distance from station: SSW 20mi, 33km
Updated: Fri, 27-Mar-2015 3:54pm EDT
Mostly cloudy
Mostly cloudy
 Wind from NNE
Wind: NNE 8 mph , 13 km/h
Temperature: 48°F , 9°C
Wind Chill: 44°F , 7°C
Dew Point: 28°F , -2°C
Humidity: 46%
Barometer: 29.74 inHg , 1007.1 hPa
Clouds: Mostly cloudy
Visibility: 10 miles , 16 km
Cloud details: Mostly cloudy 4500 ft
Mostly cloudy 10000 ft
Mostly cloudy 14000 ft
2015/03/27 19:54 KBWI 271954Z 02007KT 10SM BKN045 BKN100 BKN140 09/M02 A2974 RMK AO2 SLP072 T00891022
KDMW - Carroll Cnty, Maryland, USA
Distance from station: WNW 30mi, 48km
Updated: Fri, 27-Mar-2015 4:45pm EDT
Mostly cloudy
Mostly cloudy
 Wind from NNW
Wind: NNW 8 mph , 13 km/h
Temperature: 46°F , 8°C
Wind Chill: 42°F , 6°C
Dew Point: 25°F , -4°C
Humidity: 43%
Barometer: 29.75 inHg , 1007.5 hPa
Clouds: Mostly cloudy
Visibility: 10 miles , 16 km
Cloud details: Mostly cloudy 5000 ft
2015/03/27 20:45 KDMW 272045Z AUTO 33007KT 10SM BKN050 08/M04 A2975 RMK AO2
 
KNAK - Annapolis/Naval, Maryland, USA
Distance from station: S 30mi, 48km
Updated: Fri, 27-Mar-2015 4:33pm EDT
Overcast
Overcast
 Wind from SE
Wind: SE 5 mph , 7 km/h
Temperature: 43°F , 6°C
Wind Chill: 40°F , 4°C
Dew Point: 37°F , 3°C
Humidity: 81%
Barometer: 29.75 inHg , 1007.5 hPa
Clouds: Overcast
Visibility: 9 miles , 14 km
Cloud details: Partly cloudy 2900 ft
Overcast 4600 ft
2015/03/27 20:33 KNAK 272033Z AUTO 13004KT 9SM SCT029 OVC046 06/03 A2975 RMK AO2 T00610028
KW29 - Stevensville, Maryland, USA
Distance from station: SSE 31mi, 50km
Updated: Fri, 27-Mar-2015 4:46pm EDT

 Wind from W
Wind: W 3 mph , 6 km/h
Temperature: 43°F , 6°C
Dew Point: 36°F , 2°C
Humidity: 76%
Barometer: 29.76 inHg , 1007.8 hPa
Visibility: 10 miles , 16 km
2015/03/27 20:46 KW29 272046Z AUTO 27003KT 10SM 06/02 A2976 RMK AO1
 
KCGS - College Park, Maryland, USA
Distance from station: SW 38mi, 61km
Updated: Fri, 27-Mar-2015 4:45pm EDT
Mostly cloudy
Mostly cloudy
 Wind from N
Wind: N 5 mph , 7 km/h
Temperature: 50°F , 10°C
Wind Chill: 48°F , 9°C
Dew Point: 30°F , -1°C
Humidity: 47%
Barometer: 29.76 inHg , 1007.8 hPa
Clouds: Mostly cloudy
Visibility: 10 miles , 16 km
Cloud details: Mostly cloudy 4900 ft
Mostly cloudy 11000 ft
2015/03/27 20:45 KCGS 272045Z AUTO 35004KT 10SM BKN049 BKN110 10/M01 A2976 RMK AO1
KGAI - Gaithersburg, Maryland, USA
Distance from station: WSW 40mi, 65km
Updated: Fri, 27-Mar-2015 4:35pm EDT
Mostly cloudy
Mostly cloudy
 Wind from NW
Wind: NW 9 mph , 15 km/h
Temperature: 48°F , 9°C
Wind Chill: 44°F , 7°C
Dew Point: 28°F , -2°C
Humidity: 46%
Barometer: 29.79 inHg , 1008.8 hPa
Clouds: Mostly cloudy
Visibility: 10 miles , 16 km
Cloud details: Mostly cloudy 5000 ft
2015/03/27 20:35 KGAI 272035Z AUTO 31008KT 10SM BKN050 09/M02 A2979 RMK AO1
 
KTHV - York, Pennsylvania, USA
Distance from station: NNW 40mi, 65km
Updated: Fri, 27-Mar-2015 3:53pm EDT
Few Clouds
Few Clouds
 Wind from NNW
Wind: NNW 8 mph , 13 km/h
Temperature: 46°F , 8°C
Wind Chill: 42°F , 6°C
Dew Point: 25°F , -4°C
Humidity: 43%
Barometer: 29.75 inHg , 1007.5 hPa
Clouds: Few Clouds
Visibility: 10 miles , 16 km
Cloud details: Few Clouds 5000 ft
2015/03/27 19:53 KTHV 271953Z AUTO 34007KT 10SM FEW050 08/M04 A2975 RMK AO2 SLP079 T00831044
KFDK - Frederick, Maryland, USA
Distance from station: W 47mi, 75km
Updated: Fri, 27-Mar-2015 3:50pm EDT
Mostly cloudy
Mostly cloudy
 Wind from NW
Wind: NW 7 mph , 11 km/h
Temperature: 50°F , 10°C
Wind Chill: 47°F , 8°C
Dew Point: 19°F , -7°C
Humidity: 30%
Barometer: 29.78 inHg , 1008.5 hPa
Clouds: Mostly cloudy
Visibility: 10 miles , 16 km
Cloud details: Mostly cloudy 5000 ft
2015/03/27 19:50 KFDK 271950Z 31006KT 10SM BKN050 10/M07 A2978
 
KESN - Easton/Newnam, Maryland, USA
Distance from station: SSE 48mi, 78km
Updated: Fri, 27-Mar-2015 4:50pm EDT
Light rain, Overcast
Light rain, Overcast
 Wind from calm
Wind: Calm
Temperature: 45°F , 7°C
Dew Point: 39°F , 4°C
Humidity: 81%
Barometer: 29.79 inHg , 1008.8 hPa
Summary: Light rain
Clouds: Overcast
Visibility: 10 miles , 16 km
Cloud details: Overcast 5000 ft
2015/03/27 20:50 KESN 272050Z 00000KT 10SM -RA OVC050 07/04 A2979
KDCA - Washington/Natl, Washington D.c., USA
Distance from station: SW 49mi, 79km
Updated: Fri, 27-Mar-2015 3:52pm EDT
Overcast
Overcast
 Wind from NNE
Wind: NNE 6 mph , 9 km/h
Temperature: 50°F , 10°C
Wind Chill: 48°F , 9°C
Dew Point: 32°F , 0°C
Humidity: 50%
Barometer: 29.77 inHg , 1008.1 hPa
Clouds: Overcast
Visibility: 10 miles , 16 km
Cloud details: Mostly cloudy 4700 ft
Mostly cloudy 7500 ft
Overcast 13000 ft
2015/03/27 19:52 KDCA 271952Z 03005KT 10SM BKN047 BKN075 OVC130 10/00 A2977 RMK AO2 SLP080 T01000000
 
KLNS - Lancaster, Pennsylvania, USA
Distance from station: N 49mi, 79km
Updated: Fri, 27-Mar-2015 3:53pm EDT
Partly cloudy
Partly cloudy
 Wind from NNW
Wind: NNW 14 mph , 22 km/h
Temperature: 45°F , 7°C
Wind Chill: 39°F , 4°C
Dew Point: 25°F , -4°C
Humidity: 46%
Barometer: 29.75 inHg , 1007.5 hPa
Clouds: Partly cloudy
Visibility: 10 miles , 16 km
Cloud details: Partly cloudy 5000 ft
2015/03/27 19:53 KLNS 271953Z 33012KT 10SM SCT050 07/M04 A2975 RMK AO2 SLP076 T00721039
KILG - Wilmington, Delaware, USA
Distance from station: ENE 50mi, 81km
Updated: Fri, 27-Mar-2015 3:51pm EDT
Mostly cloudy
Mostly cloudy
 Wind from N
Wind: N 10 mph , 17 km/h
Temperature: 46°F , 8°C
Wind Chill: 41°F , 5°C
Dew Point: 27°F , -3°C
Humidity: 46%
Barometer: 29.78 inHg , 1008.5 hPa
Clouds: Mostly cloudy
Visibility: 10 miles , 16 km
Cloud details: Mostly cloudy 11000 ft
2015/03/27 19:51 KILG 271951Z 35009KT 10SM BKN110 08/M03 A2978 RMK AO2 PRESRR SLP083 T00831033